Kaneohe Bay MCAS (Marion E. Carl Field) Airport Kaneohe US
ICAO: PHNG
IATA:
Category: Medium
Scheduled Services:

Elevation: 24 ft
TransAlt. 18000 ft.

Airport Communications:
APP/DEP:125
ATIS:28.45
CLNC DEL:29.47
CTAF:120.7
GND:38.28
PMSV METRO:34.46
PTD:30.72
TWR:120.7

PHNG Zoom In..

If you have problems with the map follow the link
https://www.worldairports.se/pages/airport.php?
ICAO=PHNG

Runways:

(A) RW 04 length 7771 ft width 200 ft
---- / hdg 41

(B) RW 22 length 7771 ft width 200 ft
---- / hdg 221

Location; PHNG
Day. 18 / Time. 05.57 Zulu
* Altimeter: 29.94
* Temperature: 26° c. 78.8°f.
* Wind from: 060° Speed 05 kn.
Dewpoint: 21° c.
Visibility: 10 Statute Miles.
Clouds: Few 2900 ft.
Clouds: Scattered 4800 ft.
Clouds: Overcast 6000 ft.

PHNG 180557Z 06005KT 10SM FEW029 SCT048 OVC060 26/21 A2994 RMK AO2 SLP134 60000 T02610206 10283 20261 53016 $


Wind From 060°
Speed 05 kn.

 
 
jpsmedia.com for Web Design worldairports.se 2018   terms of use